Time;durP1;ratioP1;P1;durP2;ratioP2;P2;SDS_P1;SDS_P2;PMS_P1;PMS_P2;Temp;Humidity;BMP_temperature;BMP_pressure;BME280_temperature;BME280_humidity;BME280_pressure;Samples;Min_cycle;Max_cycle;Signal;HPM_P1;HPM_P2
2022/03/06 00:00:59;;;;;;;;;;;;;;;0.74;92.17;102620.19;4981087;28;19930;-73
2022/03/06 00:03:25;;;;;;;;;;;;;;;0.71;92.47;102625.28;4978158;28;19922;-68
2022/03/06 00:05:50;;;;;;;;;;;;;;;0.74;92.59;102624.47;4964184;28;19934;-72
2022/03/06 00:08:15;;;;;;;;;;;;;;;0.75;91.84;102632.28;4968930;28;20333;-72
2022/03/06 00:10:41;;;;;;;;;;;;;;;0.76;92.39;102623.69;4980632;28;19929;-73
2022/03/06 00:13:06;;;;;;;;;;;;;;;0.77;92.64;102630.56;4984744;28;20361;-75
2022/03/06 00:15:32;;;;;;;;;;;;;;;0.81;92.63;102628.06;4984673;28;19926;-73
2022/03/06 00:17:57;;;;;;;;;;;;;;;0.83;91.78;102634.16;4986731;28;19922;-73
2022/03/06 00:20:23;;;;;;;;;;;;;;;0.86;91.62;102642.00;4985450;28;20028;-73
2022/03/06 00:22:49;;;;;;;;;;;;;;;0.84;91.78;102644.53;4987181;28;19930;-72
2022/03/06 00:25:15;;;;;;;;;;;;;;;0.85;92.13;102638.53;4977872;28;19976;-72
2022/03/06 00:27:40;;;;;;;;;;;;;;;0.87;91.95;102636.00;4972495;28;22096;-72
2022/03/06 00:30:06;;;;;;;;;;;;;;;0.87;91.76;102638.56;4962190;28;19918;-72
2022/03/06 00:32:31;;;;;;;;;;;;;;;0.90;92.40;102641.22;4979962;28;20333;-72
2022/03/06 00:34:56;;;;;;;;;;;;;;;0.90;91.97;102642.09;4986501;28;19922;-72
2022/03/06 00:37:22;;;;;;;;;;;;;;;0.89;92.19;102637.75;4981436;28;19925;-72
2022/03/06 00:39:48;;;;;;;;;;;;;;;0.92;91.63;102640.44;4985169;28;20104;-72
2022/03/06 00:42:13;;;;;;;;;;;;;;;0.91;91.96;102638.69;4986190;28;19918;-73
2022/03/06 00:44:38;;;;;;;;;;;;;;;0.92;91.74;102632.66;5013069;28;19944;-71
2022/03/06 00:47:04;;;;;;;;;;;;;;;0.94;91.56;102643.03;4984914;28;20045;-73
2022/03/06 00:49:30;;;;;;;;;;;;;;;0.93;91.75;102643.88;4982896;28;20016;-71
2022/03/06 00:51:56;;;;;;;;;;;;;;;0.93;91.61;102646.47;4973820;28;19918;-73
2022/03/06 00:54:22;;;;;;;;;;;;;;;0.95;91.46;102647.38;4977458;28;20385;-72
2022/03/06 00:56:47;;;;;;;;;;;;;;;0.97;91.26;102648.28;4984748;28;20015;-72
2022/03/06 00:59:13;;;;;;;;;;;;;;;0.98;91.26;102651.75;4985846;28;19922;-73
2022/03/06 01:01:39;;;;;;;;;;;;;;;0.98;90.91;102650.03;4985736;28;19925;-73
2022/03/06 01:04:04;;;;;;;;;;;;;;;1.00;90.67;102650.91;4989649;28;20501;-76
2022/03/06 01:06:30;;;;;;;;;;;;;;;0.97;90.74;102655.16;4992393;28;19937;-77
2022/03/06 01:08:55;;;;;;;;;;;;;;;1.01;91.24;102654.41;4990820;28;19918;-77
2022/03/06 01:11:21;;;;;;;;;;;;;;;0.96;91.35;102651.72;4989206;28;19922;-77
2022/03/06 01:13:46;;;;;;;;;;;;;;;0.95;90.73;102654.25;4983099;28;20502;-77
2022/03/06 01:16:12;;;;;;;;;;;;;;;0.95;90.41;102657.72;4988074;28;19932;-73
2022/03/06 01:18:38;;;;;;;;;;;;;;;0.95;90.73;102660.31;4986094;28;19926;-77
2022/03/06 01:21:03;;;;;;;;;;;;;;;0.95;90.38;102662.91;4968939;28;19922;-75
2022/03/06 01:23:29;;;;;;;;;;;;;;;0.92;91.05;102668.00;4991911;28;19937;-74
2022/03/06 01:25:54;;;;;;;;;;;;;;;0.90;90.35;102669.66;4980248;28;19926;-74
2022/03/06 01:28:20;;;;;;;;;;;;;;;0.92;90.14;102681.84;4990400;28;21591;-74
2022/03/06 01:30:45;;;;;;;;;;;;;;;0.91;90.08;102674.00;4978568;28;19922;-75
2022/03/06 01:33:10;;;;;;;;;;;;;;;0.92;90.62;102675.75;4989354;28;19918;-75
2022/03/06 01:35:36;;;;;;;;;;;;;;;0.97;90.40;102675.88;4990161;28;19957;-73
2022/03/06 01:38:01;;;;;;;;;;;;;;;0.98;89.67;102682.78;4987706;28;19932;-76
2022/03/06 01:40:27;;;;;;;;;;;;;;;1.02;89.99;102676.88;4985763;28;19922;-76
2022/03/06 01:42:52;;;;;;;;;;;;;;;1.06;89.74;102682.13;4987880;28;19921;-75
2022/03/06 01:45:19;;;;;;;;;;;;;;;1.15;89.12;102676.31;4989151;28;19922;-75
2022/03/06 01:47:48;;;;;;;;;;;;;;;1.16;88.33;102682.34;4990843;28;20322;-75
2022/03/06 01:50:14;;;;;;;;;;;;;;;1.15;88.77;102678.91;4987413;28;19926;-74
2022/03/06 01:52:41;;;;;;;;;;;;;;;1.17;88.07;102678.91;4989832;28;20015;-76
2022/03/06 01:55:06;;;;;;;;;;;;;;;1.18;88.49;102676.34;4987564;28;19924;-75
2022/03/06 01:57:32;;;;;;;;;;;;;;;1.18;88.30;102681.53;4990539;28;19949;-77
2022/03/06 01:59:58;;;;;;;;;;;;;;;1.16;87.95;102679.75;4987871;28;19918;-76
2022/03/06 02:02:24;;;;;;;;;;;;;;;1.23;87.62;102679.03;4987027;28;19925;-75
2022/03/06 02:04:49;;;;;;;;;;;;;;;1.23;87.77;102673.84;4975775;28;20127;-74
2022/03/06 02:07:15;;;;;;;;;;;;;;;1.22;86.65;102672.09;4978695;28;19921;-73
2022/03/06 02:09:40;;;;;;;;;;;;;;;1.27;86.94;102677.41;4987440;28;19963;-73
2022/03/06 02:14:46;;;;;;;;;;;;;;;1.20;86.89;102668.63;4986217;28;19918;-72
2022/03/06 02:17:12;;;;;;;;;;;;;;;1.22;86.44;102669.50;4985598;28;19986;-73
2022/03/06 02:19:52;;;;;;;;;;;;;;;1.18;86.50;102670.31;4988564;28;19957;-72
2022/03/06 02:22:18;;;;;;;;;;;;;;;1.18;85.72;102668.59;4986978;28;19933;-71
2022/03/06 02:24:44;;;;;;;;;;;;;;;1.17;86.09;102666.84;4990194;28;19929;-72
2022/03/06 02:27:09;;;;;;;;;;;;;;;1.16;85.83;102662.50;4985489;28;19981;-72
2022/03/06 02:29:38;;;;;;;;;;;;;;;1.14;85.25;102664.19;4990479;28;20061;-71
2022/03/06 02:32:04;;;;;;;;;;;;;;;1.10;85.18;102656.34;4987521;28;19918;-73
2022/03/06 02:34:30;;;;;;;;;;;;;;;1.02;85.80;102664.78;4986093;28;19925;-72
2022/03/06 02:36:59;;;;;;;;;;;;;;;0.96;86.12;102664.66;4985721;28;20395;-73
2022/03/06 02:39:24;;;;;;;;;;;;;;;0.96;85.51;102659.47;4986385;28;19941;-73
2022/03/06 02:41:50;;;;;;;;;;;;;;;0.93;86.55;102654.22;4987839;28;20650;-74
2022/03/06 02:44:15;;;;;;;;;;;;;;;0.90;85.75;102659.31;4987062;28;19980;-72
2022/03/06 02:46:43;;;;;;;;;;;;;;;0.82;86.66;102661.75;4990603;28;20296;-72
2022/03/06 02:49:09;;;;;;;;;;;;;;;0.76;87.16;102662.47;4986018;28;20380;-75
2022/03/06 02:51:35;;;;;;;;;;;;;;;0.76;86.95;102665.06;4988167;28;19922;-73
2022/03/06 02:54:00;;;;;;;;;;;;;;;0.71;87.79;102658.91;4989231;28;19921;-76
2022/03/06 02:56:25;;;;;;;;;;;;;;;0.66;87.07;102663.09;4981952;28;19948;-74
2022/03/06 02:58:51;;;;;;;;;;;;;;;0.64;87.78;102662.19;4988776;28;19949;-77
2022/03/06 03:01:16;;;;;;;;;;;;;;;0.65;87.92;102669.13;4988327;28;20013;-74
2022/03/06 03:03:44;;;;;;;;;;;;;;;0.58;87.45;102672.38;4987668;28;19924;-75
2022/03/06 03:06:09;;;;;;;;;;;;;;;0.54;87.72;102674.00;4988041;28;20322;-73
2022/03/06 03:08:34;;;;;;;;;;;;;;;0.52;87.24;102673.09;4988674;28;19957;-73
2022/03/06 03:11:00;;;;;;;;;;;;;;;0.57;87.88;102675.78;4989086;28;19938;-76
2022/03/06 03:13:25;;;;;;;;;;;;;;;0.55;87.45;102674.91;4981194;28;19918;-77
2022/03/06 03:15:51;;;;;;;;;;;;;;;0.50;87.71;102674.75;5019819;28;19918;-73
2022/03/06 03:18:16;;;;;;;;;;;;;;;0.55;87.83;102678.34;4987192;28;19917;-73
2022/03/06 03:20:41;;;;;;;;;;;;;;;0.51;87.27;102673.06;4981056;28;19945;-73
2022/03/06 03:23:07;;;;;;;;;;;;;;;0.48;86.92;102671.28;4981891;28;19926;-75
2022/03/06 03:25:32;;;;;;;;;;;;;;;0.39;88.00;102676.19;4990371;28;19922;-75
2022/03/06 03:27:57;;;;;;;;;;;;;;;0.36;87.45;102671.84;4990161;28;20587;-77
2022/03/06 03:30:23;;;;;;;;;;;;;;;0.27;87.45;102669.03;4989377;28;19941;-77
2022/03/06 03:32:48;;;;;;;;;;;;;;;0.19;87.93;102676.56;4987391;28;20381;-76
2022/03/06 03:35:13;;;;;;;;;;;;;;;0.13;88.45;102679.00;4986485;28;20769;-74
2022/03/06 03:37:39;;;;;;;;;;;;;;;0.26;87.52;102675.91;4987342;28;19924;-74
2022/03/06 03:40:06;;;;;;;;;;;;;;;0.22;87.32;102676.66;4998447;28;20369;-76
2022/03/06 03:42:31;;;;;;;;;;;;;;;0.22;87.22;102674.06;4986279;28;19917;-75
2022/03/06 03:44:57;;;;;;;;;;;;;;;0.19;86.29;102679.16;4988316;28;19992;-76
2022/03/06 03:47:22;;;;;;;;;;;;;;;0.17;86.63;102678.22;4987379;28;20280;-76
2022/03/06 03:49:48;;;;;;;;;;;;;;;0.15;86.38;102677.34;4983980;28;19965;-76
2022/03/06 03:52:13;;;;;;;;;;;;;;;0.11;87.10;102672.91;4982059;28;19969;-75
2022/03/06 03:54:38;;;;;;;;;;;;;;;0.06;87.68;102682.25;4986268;28;20391;-76
2022/03/06 03:57:04;;;;;;;;;;;;;;;0.03;87.91;102677.88;4987142;28;19928;-75
2022/03/06 03:59:29;;;;;;;;;;;;;;;0.02;87.96;102686.47;4989691;28;20388;-76
2022/03/06 04:01:55;;;;;;;;;;;;;;;0.00;87.56;102688.16;4986635;28;19933;-75
2022/03/06 04:04:20;;;;;;;;;;;;;;;-0.06;87.90;102688.84;4987934;28;20024;-75
2022/03/06 04:06:46;;;;;;;;;;;;;;;-0.16;88.61;102687.72;5012135;28;19922;-75
2022/03/06 04:09:11;;;;;;;;;;;;;;;-0.21;88.29;102689.28;4988323;28;19925;-78
2022/03/06 04:11:36;;;;;;;;;;;;;;;-0.25;88.48;102702.06;5020690;28;19921;-78
2022/03/06 04:14:02;;;;;;;;;;;;;;;-0.26;88.59;102700.31;4986324;28;19926;-79
2022/03/06 04:16:27;;;;;;;;;;;;;;;-0.32;89.00;102709.66;4988844;28;19918;-77
2022/03/06 04:18:52;;;;;;;;;;;;;;;-0.26;89.03;102701.22;4988784;28;19918;-80
2022/03/06 04:21:18;;;;;;;;;;;;;;;-0.28;88.71;102720.09;5003714;28;19918;-79
2022/03/06 04:23:45;;;;;;;;;;;;;;;-0.36;89.63;102720.72;4988523;28;19930;-74
2022/03/06 04:26:10;;;;;;;;;;;;;;;-0.35;89.96;102716.44;4980081;28;20024;-74
2022/03/06 04:28:35;;;;;;;;;;;;;;;-0.37;89.20;102718.09;4985760;28;20371;-74
2022/03/06 04:31:01;;;;;;;;;;;;;;;-0.35;89.62;102722.47;4985298;28;19918;-74
2022/03/06 04:33:26;;;;;;;;;;;;;;;-0.36;89.68;102714.69;4987569;28;19922;-75
2022/03/06 04:35:51;;;;;;;;;;;;;;;-0.40;89.72;102720.59;4987019;28;20262;-75
2022/03/06 04:38:17;;;;;;;;;;;;;;;-0.41;89.73;102726.59;4990501;28;19917;-76
2022/03/06 04:40:42;;;;;;;;;;;;;;;-0.41;89.55;102730.06;4992317;28;19922;-75
2022/03/06 04:43:07;;;;;;;;;;;;;;;-0.39;89.77;102730.97;4993038;28;19961;-77
2022/03/06 04:45:33;;;;;;;;;;;;;;;-0.38;90.04;102735.28;4985889;28;20354;-74
2022/03/06 04:47:58;;;;;;;;;;;;;;;-0.33;89.18;102736.31;4989351;28;20466;-74
2022/03/06 04:50:23;;;;;;;;;;;;;;;-0.38;89.15;102739.59;4977040;28;19922;-76
2022/03/06 04:52:49;;;;;;;;;;;;;;;-0.40;89.26;102742.16;4990036;28;19924;-76
2022/03/06 04:55:14;;;;;;;;;;;;;;;-0.36;89.18;102735.34;4984106;28;19984;-75
2022/03/06 04:57:40;;;;;;;;;;;;;;;-0.40;88.92;102736.97;4979176;28;20618;-75
2022/03/06 05:00:06;;;;;;;;;;;;;;;-0.38;88.80;102732.72;4981532;28;19918;-76
2022/03/06 05:02:31;;;;;;;;;;;;;;;-0.43;89.22;102729.13;4993536;28;19928;-76
2022/03/06 05:04:57;;;;;;;;;;;;;;;-0.44;89.02;102731.69;4991238;28;20520;-76
2022/03/06 05:07:22;;;;;;;;;;;;;;;-0.41;88.95;102736.91;4981281;28;19950;-76
2022/03/06 05:09:47;;;;;;;;;;;;;;;-0.33;88.46;102735.47;4986508;28;20305;-75
2022/03/06 05:12:13;;;;;;;;;;;;;;;-0.36;88.95;102740.53;4989731;28;19960;-76
2022/03/06 05:14:38;;;;;;;;;;;;;;;-0.34;88.57;102742.31;4993558;28;20377;-75
2022/03/06 05:17:04;;;;;;;;;;;;;;;-0.38;88.63;102752.50;4991157;28;20387;-74
2022/03/06 05:19:29;;;;;;;;;;;;;;;-0.39;88.48;102743.00;4990899;28;19918;-76
2022/03/06 05:21:54;;;;;;;;;;;;;;;-0.41;88.64;102755.00;4988299;28;19933;-74
2022/03/06 05:24:20;;;;;;;;;;;;;;;-0.45;88.82;102745.41;5021067;28;19933;-75
2022/03/06 05:26:45;;;;;;;;;;;;;;;-0.42;89.17;102748.06;4992091;28;19925;-76
2022/03/06 05:29:10;;;;;;;;;;;;;;;-0.32;88.42;102750.09;4982845;28;19925;-75
2022/03/06 05:31:36;;;;;;;;;;;;;;;-0.32;88.23;102745.81;4995329;28;19941;-75
2022/03/06 05:34:01;;;;;;;;;;;;;;;-0.26;87.80;102742.53;4990881;28;19922;-74
2022/03/06 05:36:26;;;;;;;;;;;;;;;-0.20;87.26;102752.16;4990619;28;20312;-75
2022/03/06 05:38:52;;;;;;;;;;;;;;;-0.14;87.10;102739.41;4991358;28;20004;-75
2022/03/06 05:41:17;;;;;;;;;;;;;;;-0.04;86.55;102741.44;4988741;28;19918;-75
2022/03/06 05:43:42;;;;;;;;;;;;;;;-0.03;86.51;102743.19;4989827;28;19917;-73
2022/03/06 05:46:07;;;;;;;;;;;;;;;-0.06;85.84;102745.69;4989091;28;19930;-76
2022/03/06 05:48:33;;;;;;;;;;;;;;;0.01;85.91;102745.84;4990056;28;19922;-75
2022/03/06 05:50:58;;;;;;;;;;;;;;;0.04;85.67;102746.81;4991602;28;19918;-75
2022/03/06 05:53:24;;;;;;;;;;;;;;;0.14;85.37;102748.81;4990628;28;20451;-76
2022/03/06 05:55:49;;;;;;;;;;;;;;;0.19;84.57;102742.91;4989089;28;19918;-75
2022/03/06 05:58:14;;;;;;;;;;;;;;;0.21;84.13;102749.00;4990938;28;19928;-75
2022/03/06 06:00:40;;;;;;;;;;;;;;;0.29;83.54;102743.19;4990318;28;20400;-74
2022/03/06 06:03:05;;;;;;;;;;;;;;;0.23;82.68;102752.47;4987419;28;19972;-74
2022/03/06 06:05:31;;;;;;;;;;;;;;;0.27;82.01;102757.81;5018317;28;19932;-74
2022/03/06 06:07:56;;;;;;;;;;;;;;;0.28;82.25;102748.31;4998233;28;19925;-76
2022/03/06 06:10:21;;;;;;;;;;;;;;;0.36;80.88;102748.53;4988509;28;19928;-75
2022/03/06 06:12:47;;;;;;;;;;;;;;;0.32;80.04;102755.34;5019396;28;19921;-75
2022/03/06 06:15:12;;;;;;;;;;;;;;;0.35;79.58;102750.22;4986466;28;19918;-75
2022/03/06 06:17:37;;;;;;;;;;;;;;;0.37;79.74;102751.16;4989526;28;20288;-75
2022/03/06 06:20:04;;;;;;;;;;;;;;;0.36;78.24;102753.72;4987821;28;20304;-74
2022/03/06 06:22:31;;;;;;;;;;;;;;;0.36;77.94;102751.13;5020246;28;19930;-76
2022/03/06 06:24:56;;;;;;;;;;;;;;;0.38;77.78;102757.22;4988727;28;19962;-75
2022/03/06 06:27:21;;;;;;;;;;;;;;;0.42;78.36;102762.50;4986834;28;19968;-76
2022/03/06 06:29:47;;;;;;;;;;;;;;;0.48;76.78;102760.91;4979750;28;20281;-75
2022/03/06 06:32:13;;;;;;;;;;;;;;;0.49;77.22;102765.25;4999095;28;19968;-76
2022/03/06 06:34:38;;;;;;;;;;;;;;;0.51;76.89;102771.34;4986992;28;19922;-76
2022/03/06 06:37:04;;;;;;;;;;;;;;;0.51;77.26;102773.94;4987350;28;19922;-75
2022/03/06 06:39:29;;;;;;;;;;;;;;;0.54;76.81;102763.66;5000050;28;19933;-75
2022/03/06 06:41:55;;;;;;;;;;;;;;;0.57;76.47;102768.91;4982293;28;20459;-75
2022/03/06 06:44:21;;;;;;;;;;;;;;;0.61;76.68;102770.75;4988117;28;19949;-75
2022/03/06 06:46:46;;;;;;;;;;;;;;;0.58;77.41;102778.41;5005345;28;19922;-75
2022/03/06 06:49:11;;;;;;;;;;;;;;;0.66;77.36;102778.63;4989484;28;19940;-77
2022/03/06 06:51:38;;;;;;;;;;;;;;;0.68;77.83;102787.31;4992691;28;20380;-76
2022/03/06 06:54:04;;;;;;;;;;;;;;;0.75;77.55;102784.91;4972006;28;19948;-76
2022/03/06 06:56:29;;;;;;;;;;;;;;;0.81;78.03;102793.66;4986620;28;19954;-76
2022/03/06 06:58:54;;;;;;;;;;;;;;;0.91;78.57;102803.41;4989334;28;20008;-77
2022/03/06 07:01:20;;;;;;;;;;;;;;;1.01;79.66;102809.69;4986049;28;19953;-79
2022/03/06 07:03:45;;;;;;;;;;;;;;;1.09;79.71;102813.34;4989815;28;19968;-78
2022/03/06 07:06:10;;;;;;;;;;;;;;;1.10;79.51;102814.25;4986588;28;19926;-78
2022/03/06 07:08:36;;;;;;;;;;;;;;;1.15;80.16;102821.28;4989246;28;19924;-77
2022/03/06 07:11:01;;;;;;;;;;;;;;;1.18;80.86;102829.09;4982609;28;20025;-74
2022/03/06 07:13:26;;;;;;;;;;;;;;;1.30;80.98;102836.31;5020303;28;19918;-74
2022/03/06 07:15:52;;;;;;;;;;;;;;;1.33;81.34;102835.50;4989051;28;19922;-74
2022/03/06 07:18:17;;;;;;;;;;;;;;;1.34;80.98;102832.06;5002792;28;19922;-75
2022/03/06 07:20:42;;;;;;;;;;;;;;;1.37;82.19;102842.50;4990725;28;19925;-74
2022/03/06 07:23:08;;;;;;;;;;;;;;;1.47;81.60;102846.19;4996147;28;20635;-74
2022/03/06 07:25:33;;;;;;;;;;;;;;;1.51;81.91;102856.66;4988098;28;19929;-74
2022/03/06 07:27:59;;;;;;;;;;;;;;;1.46;82.73;102862.56;4990265;28;20277;-77
2022/03/06 07:30:24;;;;;;;;;;;;;;;1.52;82.55;102873.94;4994189;28;20013;-74
2022/03/06 07:32:51;;;;;;;;;;;;;;;1.52;81.94;102863.56;4969440;28;20302;-75
2022/03/06 07:35:17;;;;;;;;;;;;;;;1.61;82.36;102877.59;4959778;28;19948;-76
2022/03/06 07:37:43;;;;;;;;;;;;;;;1.62;81.86;102872.47;4994165;28;19921;-75
2022/03/06 07:40:09;;;;;;;;;;;;;;;1.59;81.45;102874.97;4988810;28;20385;-75
2022/03/06 07:42:35;;;;;;;;;;;;;;;1.61;81.57;102875.88;5002575;28;20434;-76
2022/03/06 07:45:00;;;;;;;;;;;;;;;1.70;81.94;102883.88;4987807;28;19929;-76
2022/03/06 07:47:26;;;;;;;;;;;;;;;1.70;81.48;102883.00;4989673;28;20293;-78
2022/03/06 07:49:51;;;;;;;;;;;;;;;1.89;81.98;102880.81;4990005;28;19918;-77
2022/03/06 07:52:16;;;;;;;;;;;;;;;1.94;81.39;102884.38;4989022;28;20501;-78
2022/03/06 07:54:42;;;;;;;;;;;;;;;1.98;80.96;102874.16;4989548;28;19922;-78
2022/03/06 07:57:07;;;;;;;;;;;;;;;1.97;81.02;102885.34;4989404;28;19918;-77
2022/03/06 07:59:33;;;;;;;;;;;;;;;2.08;81.23;102882.97;4989517;28;20477;-78
2022/03/06 08:01:58;;;;;;;;;;;;;;;2.15;79.76;102877.06;4989867;28;19922;-78
2022/03/06 08:04:23;;;;;;;;;;;;;;;2.17;80.20;102874.53;5020058;28;20013;-78
2022/03/06 08:06:49;;;;;;;;;;;;;;;2.27;79.74;102880.75;4987089;28;19926;-75
2022/03/06 08:09:14;;;;;;;;;;;;;;;2.53;78.89;102877.84;4983696;28;19969;-77
2022/03/06 08:11:40;;;;;;;;;;;;;;;2.53;78.94;102877.84;4993782;28;19921;-73
2022/03/06 08:14:05;;;;;;;;;;;;;;;2.53;78.80;102875.25;4988028;28;19944;-77
2022/03/06 08:16:30;;;;;;;;;;;;;;;2.34;79.77;102881.78;4989814;28;20072;-77
2022/03/06 08:18:56;;;;;;;;;;;;;;;2.21;78.51;102881.50;4993924;28;19918;-77
2022/03/06 08:21:21;;;;;;;;;;;;;;;2.19;77.66;102878.03;4992546;28;19928;-78
2022/03/06 08:23:49;;;;;;;;;;;;;;;2.39;77.43;102880.16;5024738;28;19926;-77
2022/03/06 08:26:14;;;;;;;;;;;;;;;2.35;76.21;102868.84;5023209;28;19928;-78
2022/03/06 08:28:40;;;;;;;;;;;;;;;2.39;76.16;102880.16;4992408;28;19922;-75
2022/03/06 08:31:05;;;;;;;;;;;;;;;2.51;74.84;102872.63;4989973;28;20005;-75
2022/03/06 08:33:30;;;;;;;;;;;;;;;2.45;74.63;102864.72;4990016;28;20000;-75
2022/03/06 08:35:56;;;;;;;;;;;;;;;2.56;75.22;102878.78;4987201;28;19930;-74
2022/03/06 08:38:21;;;;;;;;;;;;;;;2.70;74.94;102871.25;4988308;28;19925;-76
2022/03/06 08:40:46;;;;;;;;;;;;;;;3.43;72.39;102850.84;4991270;28;20570;-75
2022/03/06 08:43:12;;;;;;;;;;;;;;;4.48;68.64;102834.91;5006038;28;19918;-75
2022/03/06 08:45:37;;;;;;;;;;;;;;;4.93;64.76;102811.91;5020529;28;19972;-77
2022/03/06 08:48:03;;;;;;;;;;;;;;;4.83;64.88;102820.50;4991543;28;19930;-76
2022/03/06 08:50:28;;;;;;;;;;;;;;;5.16;63.24;102810.38;4990653;28;19926;-76
2022/03/06 08:52:54;;;;;;;;;;;;;;;5.73;61.68;102806.38;4991404;28;19922;-74
2022/03/06 08:55:19;;;;;;;;;;;;;;;5.53;60.83;102875.78;4989093;28;20418;-75
2022/03/06 08:57:44;;;;;;;;;;;;;;;6.26;58.96;102881.47;4990363;28;19961;-76
2022/03/06 09:00:10;;;;;;;;;;;;;;;6.63;56.98;102892.91;4989411;28;20004;-77
2022/03/06 09:02:35;;;;;;;;;;;;;;;6.13;59.62;102893.59;4989889;28;29861;-74
2022/03/06 09:05:00;;;;;;;;;;;;;;;6.23;58.15;102900.59;4989407;28;20396;-74
2022/03/06 09:07:27;;;;;;;;;;;;;;;6.48;58.74;102903.31;4989485;28;19929;-74
2022/03/06 09:09:53;;;;;;;;;;;;;;;6.52;57.31;102901.59;4989664;28;20640;-74
2022/03/06 09:12:19;;;;;;;;;;;;;;;7.25;53.73;102887.81;4988128;28;19936;-74
2022/03/06 09:14:45;;;;;;;;;;;;;;;6.58;54.65;102889.44;5000836;28;20269;-74
2022/03/06 09:17:10;;;;;;;;;;;;;;;6.53;53.25;102893.75;4988589;28;19928;-75
2022/03/06 09:19:35;;;;;;;;;;;;;;;6.93;53.46;102906.06;4989282;28;19953;-75
2022/03/06 09:22:01;;;;;;;;;;;;;;;7.28;51.44;102895.63;4988415;28;19929;-75
2022/03/06 09:24:26;;;;;;;;;;;;;;;7.20;52.26;102901.75;4991273;28;19925;-71
2022/03/06 09:26:51;;;;;;;;;;;;;;;7.26;50.91;102894.78;4990381;28;19918;-74
2022/03/06 09:29:17;;;;;;;;;;;;;;;7.62;50.77;102909.56;4988626;28;19922;-74
2022/03/06 09:31:43;;;;;;;;;;;;;;;6.86;52.22;102920.84;4979661;28;19918;-77
2022/03/06 09:34:08;;;;;;;;;;;;;;;5.99;55.78;102932.63;4966188;28;19985;-75
2022/03/06 09:36:35;;;;;;;;;;;;;;;6.11;54.69;102937.97;4984428;28;19917;-76
2022/03/06 09:39:00;;;;;;;;;;;;;;;6.37;54.44;102920.69;4988213;28;19925;-75
2022/03/06 09:41:26;;;;;;;;;;;;;;;7.31;51.93;102920.03;4988170;28;19926;-74
2022/03/06 09:43:54;;;;;;;;;;;;;;;7.33;51.41;102920.91;5020289;28;19928;-77
2022/03/06 09:46:20;;;;;;;;;;;;;;;7.69;52.77;102917.41;4987304;28;19917;-76
2022/03/06 09:48:45;;;;;;;;;;;;;;;7.39;52.26;102918.28;4992334;28;19922;-77
2022/03/06 09:51:10;;;;;;;;;;;;;;;7.33;51.76;102913.06;5018719;28;19930;-75
2022/03/06 09:53:35;;;;;;;;;;;;;;;6.85;52.94;102933.91;4990766;28;20292;-77
2022/03/06 09:56:01;;;;;;;;;;;;;;;6.70;52.05;102935.59;4987997;28;19929;-73
2022/03/06 09:58:26;;;;;;;;;;;;;;;6.31;52.47;102931.97;4989473;28;20288;-74
2022/03/06 10:00:51;;;;;;;;;;;;;;;6.19;53.63;102933.66;4982505;28;19973;-74
2022/03/06 10:03:32;;;;;;;;;;;;;;;6.86;52.88;102927.81;4989145;28;20385;-71
2022/03/06 10:05:57;;;;;;;;;;;;;;;7.42;51.03;102927.03;4989425;28;20004;-72
2022/03/06 10:08:24;;;;;;;;;;;;;;;7.10;51.35;102925.28;4989114;28;20016;-72
2022/03/06 10:10:51;;;;;;;;;;;;;;;6.40;51.43;102936.34;4990276;28;19929;-72
2022/03/06 10:13:17;;;;;;;;;;;;;;;6.94;52.08;102944.38;4988418;28;19922;-72
2022/03/06 10:15:58;;;;;;;;;;;;;;;7.05;49.98;102934.81;4991223;28;20032;-72
2022/03/06 10:18:23;;;;;;;;;;;;;;;6.56;51.09;102951.22;4988057;28;20664;-71
2022/03/06 10:20:49;;;;;;;;;;;;;;;6.39;52.47;102951.16;4989195;28;20749;-73
2022/03/06 10:23:29;;;;;;;;;;;;;;;5.82;53.11;102959.47;5018961;28;20021;-72
2022/03/06 10:26:10;;;;;;;;;;;;;;;6.39;53.32;102961.59;5019785;28;19929;-72
2022/03/06 10:28:51;;;;;;;;;;;;;;;6.48;51.17;102948.56;4987508;28;19918;-73
2022/03/06 10:31:17;;;;;;;;;;;;;;;6.89;51.89;102954.81;4986533;28;19918;-73
2022/03/06 10:33:58;;;;;;;;;;;;;;;6.46;52.94;102958.13;4990390;28;20377;-74
2022/03/06 10:36:39;;;;;;;;;;;;;;;7.25;50.74;102945.31;4985222;28;19953;-72
2022/03/06 10:39:19;;;;;;;;;;;;;;;6.84;51.51;102950.47;4988436;28;20418;-73
2022/03/06 10:42:00;;;;;;;;;;;;;;;7.32;50.17;102942.69;4987956;28;19918;-73
2022/03/06 10:44:41;;;;;;;;;;;;;;;7.40;49.53;102941.84;4987949;28;19917;-72
2022/03/06 10:47:06;;;;;;;;;;;;;;;8.02;47.43;102949.66;4988293;28;20029;-74
2022/03/06 10:49:32;;;;;;;;;;;;;;;7.91;49.64;102958.41;4988502;28;20359;-72
2022/03/06 10:52:11;;;;;;;;;;;;;;;8.07;47.77;102960.09;4989994;28;19924;-74
2022/03/06 10:54:47;;;;;;;;;;;;;;;7.04;49.83;102961.84;4977156;28;20009;-73
2022/03/06 10:57:12;;;;;;;;;;;;;;;7.20;49.69;102959.25;4987411;28;20368;-73
2022/03/06 10:59:40;;;;;;;;;;;;;;;6.69;51.46;102974.78;4988818;28;19973;-76
2022/03/06 11:02:07;;;;;;;;;;;;;;;6.02;53.03;102971.81;4987988;28;20387;-75
2022/03/06 11:04:33;;;;;;;;;;;;;;;5.50;54.66;102980.94;5019286;28;19957;-73
2022/03/06 11:06:58;;;;;;;;;;;;;;;5.37;54.97;102979.06;4989424;28;20380;-75
2022/03/06 11:09:24;;;;;;;;;;;;;;;4.81;56.35;102978.47;4987245;28;20296;-75
2022/03/06 11:11:50;;;;;;;;;;;;;;;4.82;58.66;102975.00;5003011;28;19921;-74
2022/03/06 11:14:17;;;;;;;;;;;;;;;4.65;57.78;102969.59;4981659;28;19921;-71
2022/03/06 11:16:42;;;;;;;;;;;;;;;4.56;58.30;102972.97;4985665;28;20004;-73
2022/03/06 11:19:08;;;;;;;;;;;;;;;4.70;60.07;102978.34;4981191;28;20021;-73
2022/03/06 11:21:35;;;;;;;;;;;;;;;4.21;57.70;102965.56;4987597;28;19921;-72
2022/03/06 11:24:06;;;;;;;;;;;;;;;4.55;58.86;102973.84;4987679;28;20366;-72
2022/03/06 11:26:46;;;;;;;;;;;;;;;4.63;58.14;102969.59;4968981;28;19933;-72
2022/03/06 11:29:27;;;;;;;;;;;;;;;4.51;57.94;102965.97;4974398;28;20368;-73
2022/03/06 11:31:53;;;;;;;;;;;;;;;4.36;58.32;102964.91;4968896;28;20289;-74
2022/03/06 11:34:34;;;;;;;;;;;;;;;4.26;59.28;102973.44;4979056;28;19929;-74
2022/03/06 11:37:03;;;;;;;;;;;;;;;4.10;59.46;102973.19;4976281;28;20346;-76
2022/03/06 11:39:43;;;;;;;;;;;;;;;4.12;58.50;102966.28;4974300;28;19965;-74
2022/03/06 11:42:09;;;;;;;;;;;;;;;4.39;58.46;102964.94;4975195;28;20009;-74
2022/03/06 11:44:49;;;;;;;;;;;;;;;4.41;58.56;102972.75;4975019;28;20009;-75
2022/03/06 11:47:30;;;;;;;;;;;;;;;4.33;58.55;102972.66;4977103;28;19925;-74
2022/03/06 11:49:59;;;;;;;;;;;;;;;4.37;60.45;102974.47;4987773;28;20722;-74
2022/03/06 11:52:41;;;;;;;;;;;;;;;4.22;60.23;102976.84;5018666;28;20384;-75
2022/03/06 11:55:22;;;;;;;;;;;;;;;4.05;59.73;102963.56;4986601;28;20008;-75
2022/03/06 11:57:50;;;;;;;;;;;;;;;4.37;59.11;102958.84;4975163;28;20405;-73
2022/03/06 12:00:32;;;;;;;;;;;;;;;4.32;58.59;102953.56;4975930;28;19928;-74
2022/03/06 12:02:58;;;;;;;;;;;;;;;4.33;58.63;102951.84;4985349;28;20057;-73
2022/03/06 12:05:39;;;;;;;;;;;;;;;4.57;59.16;102948.69;4986628;28;20012;-73
2022/03/06 12:08:09;;;;;;;;;;;;;;;4.44;58.44;102937.25;4985995;28;20377;-73
2022/03/06 12:10:34;;;;;;;;;;;;;;;4.42;58.43;102933.72;4988819;28;19926;-74
2022/03/06 12:12:59;;;;;;;;;;;;;;;4.63;58.69;102937.50;4971580;28;19919;-74
2022/03/06 12:15:26;;;;;;;;;;;;;;;4.63;57.06;102932.28;4993638;28;20454;-74
2022/03/06 12:17:51;;;;;;;;;;;;;;;4.62;58.40;102925.31;4988300;28;19930;-74
2022/03/06 12:20:23;;;;;;;;;;;;;;;4.51;58.59;102929.53;4989352;28;20704;-74
2022/03/06 12:22:49;;;;;;;;;;;;;;;4.61;58.67;102926.19;4988443;28;19925;-74
2022/03/06 12:25:14;;;;;;;;;;;;;;;4.58;58.20;102932.19;5017156;28;19926;-75
2022/03/06 12:27:41;;;;;;;;;;;;;;;4.71;59.31;102928.03;4987233;28;19928;-76
2022/03/06 12:30:08;;;;;;;;;;;;;;;4.71;58.58;102922.81;4986023;28;19941;-73
2022/03/06 12:32:34;;;;;;;;;;;;;;;4.60;57.08;102920.06;4989103;28;20012;-74
2022/03/06 12:35:14;;;;;;;;;;;;;;;4.49;57.28;102927.78;4985846;28;19918;-74
2022/03/06 12:37:56;;;;;;;;;;;;;;;4.47;56.57;102921.66;4985616;28;20304;-75
2022/03/06 12:40:24;;;;;;;;;;;;;;;4.63;58.36;102924.47;4984849;28;20749;-75
2022/03/06 12:43:04;;;;;;;;;;;;;;;4.77;57.86;102920.28;4988242;28;19924;-74
2022/03/06 12:45:30;;;;;;;;;;;;;;;4.76;58.23;102918.53;4980946;28;20100;-74